createdAt,value
2017-05-28T00:01:12.769Z,22.40
2017-05-28T00:03:41.810Z,22.30
2017-05-28T00:06:10.853Z,22.30
2017-05-28T00:08:39.928Z,22.30
2017-05-28T00:11:08.986Z,22.30
2017-05-28T00:13:38.037Z,22.20
2017-05-28T00:16:07.106Z,22.30
2017-05-28T00:18:36.168Z,22.20
2017-05-28T00:21:05.217Z,22.10
2017-05-28T00:23:34.290Z,22.10
2017-05-28T00:26:03.346Z,22.10
2017-05-28T00:28:32.415Z,22.10
2017-05-28T00:31:01.473Z,22.00
2017-05-28T00:33:30.528Z,22.00
2017-05-28T00:35:58.814Z,22.00
2017-05-28T00:38:27.892Z,21.90
2017-05-28T00:40:56.952Z,21.90
2017-05-28T00:43:26.015Z,21.90
2017-05-28T00:45:55.077Z,21.90
2017-05-28T00:48:24.140Z,21.80
2017-05-28T00:50:53.195Z,21.80
2017-05-28T00:53:22.262Z,21.80
2017-05-28T00:55:51.301Z,21.80
2017-05-28T00:58:20.355Z,21.70
2017-05-28T01:00:49.417Z,21.70
2017-05-28T01:03:18.475Z,21.70
2017-05-28T01:05:47.519Z,21.60
2017-05-28T01:08:16.693Z,21.60
2017-05-28T01:10:45.756Z,21.60
2017-05-28T01:13:14.793Z,21.50
2017-05-28T01:15:43.875Z,21.50
2017-05-28T01:18:12.917Z,21.50
2017-05-28T01:20:41.972Z,21.40
2017-05-28T01:23:11.030Z,21.40
2017-05-28T01:25:40.101Z,21.40
2017-05-28T01:28:09.130Z,21.40
2017-05-28T01:30:38.190Z,21.40
2017-05-28T01:33:07.254Z,21.40
2017-05-28T01:35:36.307Z,21.30
2017-05-28T01:38:05.372Z,21.30
2017-05-28T01:40:34.431Z,21.20
2017-05-28T01:43:03.495Z,21.20
2017-05-28T01:45:32.559Z,21.20
2017-05-28T01:48:01.611Z,21.10
2017-05-28T01:50:30.667Z,21.10
2017-05-28T01:52:59.744Z,21.10
2017-05-28T01:55:28.782Z,21.10
2017-05-28T01:57:57.823Z,21.10
2017-05-28T02:00:26.129Z,21.10
2017-05-28T02:02:55.181Z,21.00
2017-05-28T02:05:24.235Z,21.00
2017-05-28T02:07:52.541Z,21.00
2017-05-28T02:10:21.581Z,21.00
2017-05-28T02:12:50.658Z,20.90
2017-05-28T02:15:18.957Z,20.90
2017-05-28T02:17:48.011Z,20.80
2017-05-28T02:20:17.051Z,20.80
2017-05-28T02:22:46.122Z,20.80
2017-05-28T02:25:15.175Z,20.70
2017-05-28T02:27:44.629Z,20.60
2017-05-28T02:30:13.712Z,20.60
2017-05-28T02:32:42.758Z,20.60
2017-05-28T02:35:11.801Z,20.60
2017-05-28T02:37:40.874Z,20.60
2017-05-28T02:40:09.912Z,20.50
2017-05-28T02:42:38.963Z,20.50
2017-05-28T02:45:08.040Z,20.50
2017-05-28T02:47:37.078Z,20.50
2017-05-28T02:50:06.137Z,20.40
2017-05-28T02:52:35.211Z,20.40
2017-05-28T02:55:04.271Z,20.30
2017-05-28T02:57:33.327Z,20.30
2017-05-28T03:00:02.383Z,20.30
2017-05-28T03:02:31.463Z,20.30
2017-05-28T03:05:00.523Z,20.30
2017-05-28T03:07:29.577Z,20.20
2017-05-28T03:09:58.644Z,20.20
2017-05-28T03:12:27.698Z,20.20
2017-05-28T03:14:56.778Z,20.20
2017-05-28T03:17:25.833Z,20.10
2017-05-28T03:19:54.896Z,20.10
2017-05-28T03:22:23.968Z,20.00
2017-05-28T03:24:53.027Z,20.10
2017-05-28T03:27:22.087Z,20.00
2017-05-28T03:29:51.171Z,20.00
2017-05-28T03:32:20.213Z,20.00
2017-05-28T03:34:49.279Z,20.00
2017-05-28T03:37:18.339Z,20.00
2017-05-28T03:39:47.413Z,20.00
2017-05-28T03:42:16.467Z,20.10
2017-05-28T03:44:45.549Z,20.10
2017-05-28T03:47:14.612Z,20.10
2017-05-28T03:49:43.662Z,20.10
2017-05-28T03:52:12.752Z,20.10
2017-05-28T03:54:41.815Z,20.10
2017-05-28T03:57:10.869Z,20.10
2017-05-28T03:59:39.937Z,20.10
2017-05-28T04:02:09.028Z,20.10
2017-05-28T04:04:38.111Z,20.10
2017-05-28T04:07:07.182Z,20.20
2017-05-28T04:09:36.244Z,20.20
2017-05-28T04:12:05.313Z,20.20
2017-05-28T04:14:34.391Z,20.20
2017-05-28T04:17:03.441Z,20.30
2017-05-28T04:19:32.503Z,20.30
2017-05-28T04:22:01.581Z,20.50
2017-05-28T04:24:30.652Z,20.50
2017-05-28T04:26:59.705Z,20.50
2017-05-28T04:29:29.020Z,20.40
2017-05-28T04:31:58.096Z,20.30
2017-05-28T04:34:27.160Z,20.30
2017-05-28T04:36:56.223Z,20.40
2017-05-28T04:39:25.271Z,20.40
2017-05-28T04:41:53.566Z,20.30
2017-05-28T04:44:22.638Z,20.20
2017-05-28T04:46:51.699Z,20.10
2017-05-28T04:49:20.761Z,20.20
2017-05-28T04:51:49.812Z,20.10
2017-05-28T04:54:18.889Z,19.80
2017-05-28T04:56:47.956Z,20.00
2017-05-28T04:59:17.022Z,19.90
2017-05-28T05:01:46.085Z,20.00
2017-05-28T05:04:14.364Z,20.00
2017-05-28T05:06:43.429Z,20.20
2017-05-28T05:09:12.481Z,20.30
2017-05-28T05:11:41.549Z,20.40
2017-05-28T05:14:10.635Z,20.30
2017-05-28T05:16:39.686Z,20.20
2017-05-28T05:19:08.764Z,20.10
2017-05-28T05:21:37.833Z,20.00
2017-05-28T05:24:06.881Z,20.10
2017-05-28T05:26:35.939Z,20.20
2017-05-28T05:29:05.001Z,20.30
2017-05-28T05:31:34.044Z,20.30
2017-05-28T05:34:03.108Z,20.30
2017-05-28T05:36:32.173Z,20.30
2017-05-28T05:39:01.239Z,20.30
2017-05-28T05:41:30.294Z,20.30
2017-05-28T05:43:59.367Z,20.30
2017-05-28T05:46:28.435Z,20.20
2017-05-28T05:48:57.489Z,20.20
2017-05-28T05:51:26.580Z,20.20
2017-05-28T05:53:55.614Z,20.20
2017-05-28T05:56:24.683Z,20.20
2017-05-28T05:58:53.763Z,20.20
2017-05-28T06:01:22.813Z,20.20
2017-05-28T06:03:51.883Z,20.20
2017-05-28T06:06:20.967Z,20.20
2017-05-28T06:08:50.035Z,20.20
2017-05-28T06:11:19.100Z,20.20
2017-05-28T06:13:48.155Z,20.20
2017-05-28T06:16:17.219Z,20.20
2017-05-28T06:18:46.260Z,20.20
2017-05-28T06:21:15.440Z,20.20
2017-05-28T06:23:44.486Z,20.30
2017-05-28T06:26:13.547Z,20.30
2017-05-28T06:28:42.999Z,20.40
2017-05-28T06:31:12.045Z,20.50
2017-05-28T06:33:41.108Z,20.60
2017-05-28T06:38:48.353Z,20.70
2017-05-28T06:41:17.434Z,20.80
2017-05-28T06:43:46.499Z,20.60
2017-05-28T06:46:15.545Z,20.70
2017-05-28T06:48:44.617Z,20.70
2017-05-28T06:51:13.762Z,20.90
2017-05-28T06:53:42.803Z,21.00
2017-05-28T06:56:11.895Z,21.20
2017-05-28T06:58:40.965Z,21.20
2017-05-28T07:01:10.018Z,21.30
2017-05-28T07:03:39.107Z,21.40
2017-05-28T07:06:08.171Z,21.40
2017-05-28T07:08:37.234Z,21.40
2017-05-28T07:11:06.322Z,21.40
2017-05-28T07:13:35.384Z,21.70
2017-05-28T07:16:04.450Z,21.90
2017-05-28T07:18:33.531Z,22.20
2017-05-28T07:21:02.597Z,22.50
2017-05-28T07:23:31.649Z,22.80
2017-05-28T07:26:00.744Z,23.00
2017-05-28T07:28:29.807Z,23.10
2017-05-28T07:30:58.854Z,23.00
2017-05-28T07:33:27.934Z,23.10
2017-05-28T07:35:56.991Z,23.00
2017-05-28T07:38:26.042Z,23.00
2017-05-28T07:40:55.117Z,23.10
2017-05-28T07:43:24.177Z,23.20
2017-05-28T07:45:53.221Z,23.30
2017-05-28T07:48:22.296Z,23.30
2017-05-28T07:50:51.366Z,23.50
2017-05-28T07:53:20.404Z,23.60
2017-05-28T07:55:49.489Z,23.70
2017-05-28T07:58:18.545Z,24.00
2017-05-28T08:00:47.586Z,24.20
2017-05-28T08:03:16.685Z,24.40
2017-05-28T08:05:45.739Z,24.50
2017-05-28T08:08:14.783Z,24.70
2017-05-28T08:10:43.846Z,24.90
2017-05-28T08:13:12.901Z,25.10
2017-05-28T08:15:41.973Z,25.30
2017-05-28T08:18:11.050Z,25.40
2017-05-28T08:20:40.107Z,25.60
2017-05-28T08:23:09.172Z,25.50
2017-05-28T08:25:38.218Z,25.40
2017-05-28T08:28:07.265Z,25.30
2017-05-28T08:30:36.315Z,25.30
2017-05-28T08:33:05.380Z,25.20
2017-05-28T08:35:34.443Z,25.00
2017-05-28T08:38:02.718Z,25.00
2017-05-28T08:40:31.939Z,24.80
2017-05-28T08:43:01.006Z,24.30
2017-05-28T08:45:30.038Z,23.60
2017-05-28T08:47:59.120Z,23.00
2017-05-28T08:50:28.169Z,22.80
2017-05-28T08:52:57.235Z,22.70
2017-05-28T08:55:26.304Z,21.30
2017-05-28T08:57:55.370Z,19.60
2017-05-28T09:00:24.431Z,18.90
2017-05-28T09:02:53.506Z,18.70
2017-05-28T09:05:22.561Z,18.80
2017-05-28T09:07:51.621Z,18.80
2017-05-28T09:10:20.718Z,18.90
2017-05-28T09:12:49.776Z,18.60
2017-05-28T09:15:18.869Z,18.50
2017-05-28T09:17:47.923Z,18.40
2017-05-28T09:20:16.991Z,18.50
2017-05-28T09:22:46.044Z,18.40
2017-05-28T09:25:15.128Z,18.30
2017-05-28T09:27:44.186Z,18.40
2017-05-28T09:30:13.289Z,18.40
2017-05-28T09:32:42.362Z,18.60
2017-05-28T09:35:11.436Z,18.70
2017-05-28T09:37:40.490Z,18.90
2017-05-28T09:40:09.561Z,18.90
2017-05-28T09:42:38.617Z,19.10
2017-05-28T09:45:07.691Z,19.20
2017-05-28T09:47:36.782Z,19.30
2017-05-28T09:50:06.297Z,19.30
2017-05-28T09:52:35.360Z,19.40
2017-05-28T09:55:04.443Z,19.40
2017-05-28T09:57:33.503Z,19.20
2017-05-28T10:00:02.580Z,19.30
2017-05-28T10:02:31.666Z,18.90
2017-05-28T10:05:00.717Z,19.10
2017-05-28T10:07:29.777Z,18.90
2017-05-28T10:09:58.859Z,18.90
2017-05-28T10:12:27.982Z,19.40
2017-05-28T10:14:57.018Z,19.60
2017-05-28T10:17:26.104Z,19.90
2017-05-28T10:19:55.164Z,20.10
2017-05-28T10:22:24.218Z,20.30
2017-05-28T10:24:53.302Z,20.30
2017-05-28T10:27:22.411Z,20.20
2017-05-28T10:29:50.726Z,20.20
2017-05-28T10:32:19.815Z,20.30
2017-05-28T10:34:48.873Z,20.40
2017-05-28T10:37:17.946Z,20.40
2017-05-28T10:39:47.088Z,20.70
2017-05-28T10:42:16.127Z,21.00
2017-05-28T10:44:46.036Z,21.20
2017-05-28T10:47:15.107Z,21.10
2017-05-28T10:49:44.172Z,21.00
2017-05-28T10:52:13.230Z,21.10
2017-05-28T10:54:42.339Z,21.20
2017-05-28T10:57:11.398Z,21.10
2017-05-28T10:59:40.449Z,21.20
2017-05-28T11:02:09.583Z,21.20
2017-05-28T11:04:38.634Z,21.20
2017-05-28T11:07:07.686Z,21.50
2017-05-28T11:09:36.779Z,21.50
2017-05-28T11:12:05.829Z,21.60
2017-05-28T11:14:34.877Z,21.90
2017-05-28T11:17:03.947Z,21.70
2017-05-28T11:19:33.038Z,21.70
2017-05-28T11:22:03.555Z,21.80
2017-05-28T11:24:32.617Z,21.80
2017-05-28T11:27:01.678Z,21.90
2017-05-28T11:29:30.776Z,22.20
2017-05-28T11:31:59.830Z,22.20
2017-05-28T11:34:28.885Z,22.20
2017-05-28T11:36:57.957Z,22.40
2017-05-28T11:39:27.023Z,22.50
2017-05-28T11:41:56.084Z,22.80
2017-05-28T11:44:25.195Z,22.90
2017-05-28T11:46:54.247Z,23.20
2017-05-28T11:49:23.309Z,22.90
2017-05-28T11:51:52.362Z,23.30
2017-05-28T11:54:21.519Z,23.30
2017-05-28T11:56:50.579Z,23.50
2017-05-28T11:59:19.653Z,23.80
2017-05-28T12:01:48.734Z,24.20
2017-05-28T12:04:17.796Z,23.60
2017-05-28T12:06:46.858Z,23.80
2017-05-28T12:09:15.906Z,23.30
2017-05-28T12:11:44.950Z,23.50
2017-05-28T12:14:14.015Z,23.40
2017-05-28T12:16:43.079Z,23.40
2017-05-28T12:19:12.121Z,23.20
2017-05-28T12:21:41.198Z,23.30
2017-05-28T12:24:10.270Z,23.00
2017-05-28T12:26:39.335Z,23.40
2017-05-28T12:29:08.419Z,23.40
2017-05-28T12:31:37.475Z,24.00
2017-05-28T12:34:06.570Z,24.20
2017-05-28T12:36:35.646Z,24.30
2017-05-28T12:39:05.402Z,24.50
2017-05-28T12:41:34.457Z,24.50
2017-05-28T12:44:03.531Z,23.90
2017-05-28T12:46:32.579Z,24.20
2017-05-28T12:49:01.638Z,24.30
2017-05-28T12:51:30.698Z,24.10
2017-05-28T12:53:59.751Z,24.50
2017-05-28T12:56:28.813Z,24.80
2017-05-28T12:58:57.905Z,25.10
2017-05-28T13:01:26.930Z,25.30
2017-05-28T13:03:56.425Z,25.70
2017-05-28T13:06:25.516Z,25.90
2017-05-28T13:08:54.571Z,26.10
2017-05-28T13:11:23.614Z,26.40
2017-05-28T13:13:52.877Z,26.80
2017-05-28T13:16:21.910Z,27.00
2017-05-28T13:18:50.950Z,26.80
2017-05-28T13:21:22.123Z,27.00
2017-05-28T13:23:51.184Z,27.10
2017-05-28T13:26:20.225Z,27.10
2017-05-28T13:28:49.292Z,27.30
2017-05-28T13:31:18.339Z,27.50
2017-05-28T13:33:46.635Z,27.50
2017-05-28T13:36:15.681Z,28.20
2017-05-28T13:38:44.745Z,28.80
2017-05-28T13:41:13.821Z,28.90
2017-05-28T13:43:42.877Z,28.80
2017-05-28T13:46:11.936Z,28.90
2017-05-28T13:48:40.994Z,29.00
2017-05-28T13:51:10.053Z,28.90
2017-05-28T13:53:39.110Z,29.00
2017-05-28T13:56:08.175Z,28.80
2017-05-28T13:58:37.255Z,28.80
2017-05-28T14:01:06.304Z,28.90
2017-05-28T14:03:35.459Z,29.10
2017-05-28T14:06:04.515Z,29.10
2017-05-28T14:08:33.561Z,29.10
2017-05-28T14:11:02.636Z,29.30
2017-05-28T14:13:31.685Z,29.30
2017-05-28T14:16:00.739Z,29.00
2017-05-28T14:18:29.803Z,28.90
2017-05-28T14:20:58.850Z,29.00
2017-05-28T14:23:27.908Z,29.00
2017-05-28T14:25:59.516Z,29.10
2017-05-28T14:28:28.554Z,29.40
2017-05-28T14:30:57.598Z,29.60
2017-05-28T14:33:26.668Z,29.70
2017-05-28T14:35:55.701Z,29.80
2017-05-28T14:38:24.786Z,29.90
2017-05-28T14:40:53.851Z,29.90
2017-05-28T14:43:22.908Z,29.90
2017-05-28T14:45:51.960Z,29.80
2017-05-28T14:48:21.034Z,30.00
2017-05-28T14:50:50.094Z,30.10
2017-05-28T14:53:19.152Z,30.40
2017-05-28T14:55:48.265Z,30.40
2017-05-28T14:58:17.296Z,30.50
2017-05-28T15:00:46.364Z,30.70
2017-05-28T15:03:16.161Z,30.80
2017-05-28T15:05:45.208Z,30.80
2017-05-28T15:08:14.287Z,30.50
2017-05-28T15:10:42.649Z,30.50
2017-05-28T15:13:11.825Z,30.30
2017-05-28T15:15:40.852Z,30.50
2017-05-28T15:18:09.918Z,30.60
2017-05-28T15:20:38.968Z,30.80
2017-05-28T15:23:08.027Z,30.90
2017-05-28T15:25:37.078Z,30.90
2017-05-28T15:28:06.131Z,30.70
2017-05-28T15:30:35.177Z,30.70
2017-05-28T15:33:04.249Z,30.60
2017-05-28T15:35:33.300Z,30.50
2017-05-28T15:38:02.334Z,30.70
2017-05-28T15:40:31.410Z,30.60
2017-05-28T15:43:00.468Z,30.80
2017-05-28T15:45:29.505Z,30.80
2017-05-28T15:47:58.581Z,31.00
2017-05-28T15:50:27.632Z,30.80
2017-05-28T15:52:56.677Z,30.90
2017-05-28T15:55:25.737Z,31.10
2017-05-28T15:57:54.826Z,31.20
2017-05-28T16:00:23.881Z,31.10
2017-05-28T16:02:53.160Z,30.80
2017-05-28T16:05:22.170Z,30.70
2017-05-28T16:07:51.252Z,30.60
2017-05-28T16:10:20.335Z,30.70
2017-05-28T16:12:49.410Z,30.50
2017-05-28T16:15:18.438Z,30.40
2017-05-28T16:17:47.524Z,30.10
2017-05-28T16:22:54.814Z,29.80
2017-05-28T16:25:24.029Z,30.00
2017-05-28T16:27:53.109Z,30.10
2017-05-28T16:30:22.174Z,30.20
2017-05-28T16:32:51.231Z,30.40
2017-05-28T16:35:20.289Z,30.50
2017-05-28T16:37:50.554Z,30.50
2017-05-28T16:40:19.589Z,30.60
2017-05-28T16:42:48.633Z,30.40
2017-05-28T16:45:17.831Z,30.30
2017-05-28T16:47:46.878Z,30.00
2017-05-28T16:50:15.935Z,29.90
2017-05-28T16:52:45.029Z,29.90
2017-05-28T16:55:14.059Z,29.80
2017-05-28T16:57:43.125Z,29.80
2017-05-28T17:00:12.210Z,29.90
2017-05-28T17:02:41.437Z,30.00
2017-05-28T17:05:10.460Z,30.00
2017-05-28T17:07:39.536Z,30.00
2017-05-28T17:10:08.660Z,30.10
2017-05-28T17:12:37.742Z,30.30
2017-05-28T17:15:07.020Z,30.50
2017-05-28T17:17:36.189Z,30.50
2017-05-28T17:20:05.764Z,30.50
2017-05-28T17:22:35.099Z,30.40
2017-05-28T17:25:04.379Z,30.50
2017-05-28T17:27:33.795Z,30.50
2017-05-28T17:30:02.961Z,30.50
2017-05-28T17:32:32.316Z,30.50
2017-05-28T17:35:01.591Z,30.40
2017-05-28T17:37:31.306Z,30.30
2017-05-28T17:40:02.047Z,30.20
2017-05-28T17:42:31.471Z,30.10
2017-05-28T17:45:01.206Z,30.10
2017-05-28T17:47:30.958Z,30.00
2017-05-28T17:50:00.166Z,29.80
2017-05-28T17:52:30.049Z,29.70
2017-05-28T17:55:00.059Z,29.50
2017-05-28T17:57:30.054Z,29.30
2017-05-28T17:59:59.136Z,29.20
2017-05-28T18:02:29.037Z,29.10
2017-05-28T18:04:59.117Z,29.00
2017-05-28T18:07:29.245Z,28.80
2017-05-28T18:09:59.735Z,28.70
2017-05-28T18:12:29.912Z,28.40
2017-05-28T18:15:00.142Z,28.20
2017-05-28T18:17:30.229Z,28.00
2017-05-28T18:20:00.966Z,27.90
2017-05-28T18:22:31.115Z,27.70
2017-05-28T18:25:01.343Z,27.50
2017-05-28T18:27:31.439Z,27.30
2017-05-28T18:30:02.529Z,27.20
2017-05-28T18:32:32.690Z,27.10
2017-05-28T18:35:02.920Z,26.90
2017-05-28T18:37:33.153Z,26.70
2017-05-28T18:40:03.398Z,26.70
2017-05-28T18:42:33.542Z,26.60
2017-05-28T18:45:03.605Z,26.50
2017-05-28T18:47:34.312Z,26.50
2017-05-28T18:50:04.520Z,26.40
2017-05-28T18:52:34.837Z,26.40
2017-05-28T18:55:05.117Z,26.40
2017-05-28T18:57:35.358Z,26.30
2017-05-28T19:00:06.177Z,26.30
2017-05-28T19:02:36.298Z,26.20
2017-05-28T19:05:06.526Z,26.20
2017-05-28T19:07:36.725Z,26.20
2017-05-28T19:10:06.911Z,26.10
2017-05-28T19:12:37.038Z,26.00
2017-05-28T19:15:07.309Z,25.90
2017-05-28T19:17:37.481Z,25.90
2017-05-28T19:20:07.720Z,25.80
2017-05-28T19:22:37.841Z,25.70
2017-05-28T19:25:07.295Z,25.70
2017-05-28T19:27:38.644Z,25.50
2017-05-28T19:30:11.365Z,25.40
2017-05-28T19:32:41.490Z,25.40
2017-05-28T19:35:12.249Z,25.40
2017-05-28T19:37:42.354Z,25.40
2017-05-28T19:40:12.615Z,25.30
2017-05-28T19:42:42.666Z,25.30
2017-05-28T19:45:12.893Z,25.30
2017-05-28T19:47:43.114Z,25.20
2017-05-28T19:50:13.334Z,25.10
2017-05-28T19:52:43.425Z,25.00
2017-05-28T19:55:13.570Z,25.00
2017-05-28T19:57:43.415Z,24.90
2017-05-28T20:00:13.601Z,24.80
2017-05-28T20:02:43.607Z,24.70
2017-05-28T20:05:13.877Z,24.70
2017-05-28T20:07:44.154Z,24.70
2017-05-28T20:10:14.395Z,24.70
2017-05-28T20:12:44.518Z,24.60
2017-05-28T20:15:14.751Z,24.60
2017-05-28T20:17:44.892Z,24.50
2017-05-28T20:20:15.179Z,24.50
2017-05-28T20:22:45.307Z,24.40
2017-05-28T20:25:15.616Z,24.40
2017-05-28T20:27:45.740Z,24.30
2017-05-28T20:30:15.810Z,24.20
2017-05-28T20:32:45.947Z,24.20
2017-05-28T20:35:16.253Z,24.10
2017-05-28T20:37:46.331Z,24.10
2017-05-28T20:40:16.538Z,24.10
2017-05-28T20:42:46.646Z,24.00
2017-05-28T20:45:16.791Z,23.90
2017-05-28T20:47:46.737Z,23.90
2017-05-28T20:50:16.713Z,23.90
2017-05-28T20:52:46.772Z,23.80
2017-05-28T20:55:16.835Z,23.80
2017-05-28T20:57:46.847Z,23.70
2017-05-28T21:00:16.742Z,23.60
2017-05-28T21:02:46.031Z,23.60
2017-05-28T21:05:15.211Z,23.60
2017-05-28T21:07:44.445Z,23.50
2017-05-28T21:10:13.642Z,23.50
2017-05-28T21:12:42.723Z,23.40
2017-05-28T21:15:11.801Z,23.40
2017-05-28T21:17:40.842Z,23.40
2017-05-28T21:20:09.911Z,23.40
2017-05-28T21:22:38.984Z,23.40
2017-05-28T21:25:08.052Z,23.40
2017-05-28T21:27:37.103Z,23.50
2017-05-28T21:30:06.169Z,23.50
2017-05-28T21:32:35.219Z,23.50
2017-05-28T21:35:04.285Z,23.50
2017-05-28T21:37:33.340Z,23.60
2017-05-28T21:40:02.386Z,23.60
2017-05-28T21:42:31.432Z,23.60
2017-05-28T21:45:00.513Z,23.60
2017-05-28T21:47:29.563Z,23.60
2017-05-28T21:49:58.680Z,23.60
2017-05-28T21:52:27.718Z,23.60
2017-05-28T21:54:56.761Z,23.50
2017-05-28T21:57:25.807Z,23.50
2017-05-28T21:59:54.869Z,23.40
2017-05-28T22:02:23.935Z,23.40
2017-05-28T22:04:52.989Z,23.40
2017-05-28T22:07:21.285Z,23.40
2017-05-28T22:09:50.326Z,23.30
2017-05-28T22:12:19.374Z,23.30
2017-05-28T22:14:48.455Z,23.20
2017-05-28T22:17:17.493Z,23.10
2017-05-28T22:19:46.547Z,23.10
2017-05-28T22:22:15.597Z,23.10
2017-05-28T22:24:44.649Z,23.10
2017-05-28T22:27:13.711Z,23.10
2017-05-28T22:29:42.809Z,23.10
2017-05-28T22:32:11.880Z,23.00
2017-05-28T22:34:40.909Z,23.00
2017-05-28T22:37:09.981Z,22.90
2017-05-28T22:39:39.041Z,22.90
2017-05-28T22:42:08.104Z,22.90
2017-05-28T22:44:37.175Z,22.80
2017-05-28T22:47:06.230Z,22.80
2017-05-28T22:49:35.283Z,22.70
2017-05-28T22:52:04.507Z,22.80
2017-05-28T22:54:33.557Z,22.80
2017-05-28T22:57:02.617Z,22.80
2017-05-28T22:59:31.681Z,22.70
2017-05-28T23:02:00.730Z,22.60
2017-05-28T23:04:29.794Z,22.60
2017-05-28T23:06:58.872Z,22.50
2017-05-28T23:09:27.937Z,22.50
2017-05-28T23:11:57.020Z,22.30
2017-05-28T23:14:26.096Z,22.30
2017-05-28T23:16:55.152Z,22.30
2017-05-28T23:19:24.203Z,22.20
2017-05-28T23:21:53.287Z,22.20
2017-05-28T23:24:22.354Z,22.10
2017-05-28T23:26:51.404Z,22.10
2017-05-28T23:29:20.473Z,22.10
2017-05-28T23:31:49.521Z,22.00
2017-05-28T23:34:18.577Z,22.00
2017-05-28T23:36:47.701Z,22.00
2017-05-28T23:39:16.748Z,22.00
2017-05-28T23:41:45.797Z,21.90
2017-05-28T23:44:14.867Z,21.90
2017-05-28T23:46:43.935Z,21.90
2017-05-28T23:49:12.988Z,21.80
2017-05-28T23:51:42.054Z,21.70
2017-05-28T23:54:11.115Z,21.70
2017-05-28T23:56:40.165Z,21.70
2017-05-28T23:59:09.659Z,21.60
